TimeEDT,TemperatureF,Dew PointF,Humidity,Sea Level PressureIn,VisibilityMPH,Wind Direction,Wind SpeedMPH,Gust SpeedMPH,PrecipitationIn,Events,Conditions,WindDirDegrees,DateUTC
12:15 AM,44.8,43.0,93,30.02,10.0,Calm,Calm,-,N/A,,Clear,0,2013-09-30 04:15:00
12:35 AM,44.1,42.3,93,30.02,10.0,SW,3.5,-,N/A,,Clear,230,2013-09-30 04:35:00
12:55 AM,44.1,42.8,95,30.03,10.0,WSW,3.5,-,N/A,,Clear,250,2013-09-30 04:55:00
1:14 AM,43.2,41.5,94,30.02,10.0,Calm,Calm,-,N/A,,Clear,0,2013-09-30 05:14:00
1:35 AM,43.0,41.5,95,30.02,10.0,SSW,3.5,-,N/A,,Clear,200,2013-09-30 05:35:00
1:55 AM,43.2,41.7,95,30.02,10.0,South,3.5,-,N/A,,Clear,190,2013-09-30 05:55:00
2:14 AM,43.2,41.9,95,30.02,10.0,SW,3.5,-,N/A,,Clear,230,2013-09-30 06:14:00
2:35 AM,41.9,40.5,95,30.03,10.0,Calm,Calm,-,N/A,,Clear,0,2013-09-30 06:35:00
2:55 AM,41.7,40.5,95,30.02,10.0,Calm,Calm,-,N/A,,Clear,0,2013-09-30 06:55:00
3:15 AM,41.9,40.5,95,30.02,10.0,SW,3.5,-,N/A,,Clear,220,2013-09-30 07:15:00
3:35 AM,41.4,40.1,95,30.01,10.0,SW,3.5,-,N/A,,Clear,220,2013-09-30 07:35:00
3:55 AM,43.9,42.8,96,30.01,10.0,SSW,3.5,-,N/A,,Clear,200,2013-09-30 07:55:00
4:14 AM,42.6,41.4,95,30.01,10.0,SSW,3.5,-,N/A,,Clear,200,2013-09-30 08:14:00
4:35 AM,43.9,42.8,96,30.01,10.0,Calm,Calm,-,N/A,,Clear,0,2013-09-30 08:35:00
4:55 AM,44.1,42.8,95,30.01,10.0,SSW,3.5,-,N/A,,Clear,200,2013-09-30 08:55:00
5:14 AM,42.8,41.5,95,30.01,10.0,Calm,Calm,-,N/A,,Clear,0,2013-09-30 09:14:00
5:35 AM,43.0,41.9,96,30.01,10.0,Calm,Calm,-,N/A,,Clear,0,2013-09-30 09:35:00
5:54 AM,43.3,42.3,96,30.01,10.0,SW,4.6,-,N/A,,Clear,220,2013-09-30 09:54:00
6:15 AM,43.7,42.4,95,30.02,10.0,SW,3.5,-,N/A,,Clear,230,2013-09-30 10:15:00
6:34 AM,43.2,41.9,95,30.02,10.0,SSW,4.6,-,N/A,,Clear,210,2013-09-30 10:34:00
6:55 AM,43.9,42.8,96,30.03,10.0,SSW,3.5,-,N/A,,Clear,210,2013-09-30 10:55:00
7:14 AM,43.7,42.4,95,30.02,10.0,SW,4.6,-,N/A,,Clear,220,2013-09-30 11:14:00
7:35 AM,43.0,41.5,95,30.02,10.0,South,3.5,-,N/A,,Clear,190,2013-09-30 11:35:00
7:55 AM,44.2,43.0,95,30.02,10.0,SSW,3.5,-,N/A,,Clear,210,2013-09-30 11:55:00
8:15 AM,45.7,44.4,95,30.02,10.0,SSW,3.5,-,N/A,,Clear,200,2013-09-30 12:15:00
8:34 AM,48.0,46.4,94,30.02,10.0,Calm,Calm,-,N/A,,Clear,0,2013-09-30 12:34:00
8:55 AM,50.7,48.9,94,30.02,10.0,Calm,Calm,-,N/A,,Clear,0,2013-09-30 12:55:00
9:15 AM,53.2,49.5,87,30.01,10.0,Calm,Calm,-,N/A,,Clear,0,2013-09-30 13:15:00
9:34 AM,55.0,49.5,81,30.01,10.0,Calm,Calm,-,N/A,,Clear,0,2013-09-30 13:34:00
9:55 AM,55.8,48.9,78,30.01,10.0,SSW,4.6,-,N/A,,Clear,200,2013-09-30 13:55:00
10:15 AM,57.4,49.5,75,30.00,10.0,SSE,4.6,-,N/A,,Clear,160,2013-09-30 14:15:00
10:34 AM,56.7,49.6,77,29.99,10.0,SE,3.5,-,N/A,,Clear,140,2013-09-30 14:34:00
10:55 AM,59.0,49.8,72,29.99,10.0,SSE,3.5,-,N/A,,Clear,160,2013-09-30 14:55:00
11:15 AM,60.6,50.5,69,29.98,10.0,SE,4.6,-,N/A,,Clear,140,2013-09-30 15:15:00
11:34 AM,61.7,50.2,66,29.98,10.0,SSE,3.5,-,N/A,,Clear,150,2013-09-30 15:34:00
11:55 AM,63.5,48.9,59,29.98,10.0,SSE,4.6,-,N/A,,Clear,150,2013-09-30 15:55:00
12:15 PM,64.6,48.0,55,29.97,10.0,ESE,5.8,-,N/A,,Clear,120,2013-09-30 16:15:00
12:35 PM,65.1,46.2,50,29.98,10.0,South,4.6,-,N/A,,Clear,190,2013-09-30 16:35:00
12:55 PM,66.7,45.3,46,29.98,10.0,SW,5.8,-,N/A,,Clear,230,2013-09-30 16:55:00
1:15 PM,65.3,45.5,49,29.97,10.0,SE,4.6,-,N/A,,Clear,140,2013-09-30 17:15:00
1:35 PM,66.7,44.6,45,29.97,10.0,South,4.6,-,N/A,,Clear,190,2013-09-30 17:35:00
1:54 PM,63.7,49.8,61,29.96,10.0,ENE,6.9,-,N/A,,Clear,70,2013-09-30 17:54:00
2:15 PM,63.9,50.7,62,29.94,10.0,ENE,5.8,-,N/A,,Clear,70,2013-09-30 18:15:00
2:35 PM,64.8,51.8,63,29.93,10.0,ENE,8.1,-,N/A,,Clear,60,2013-09-30 18:35:00
2:54 PM,65.5,52.0,62,29.94,10.0,ENE,5.8,-,N/A,,Clear,60,2013-09-30 18:54:00
3:15 PM,65.7,53.1,64,29.93,10.0,ENE,6.9,-,N/A,,Clear,60,2013-09-30 19:15:00
3:35 PM,65.7,51.4,60,29.92,10.0,ENE,6.9,-,N/A,,Clear,60,2013-09-30 19:35:00
3:54 PM,65.8,52.0,61,29.92,10.0,NE,6.9,-,N/A,,Clear,50,2013-09-30 19:54:00
4:15 PM,64.9,52.5,64,29.92,10.0,ENE,5.8,-,N/A,,Clear,60,2013-09-30 20:15:00
4:35 PM,65.5,51.1,60,29.90,10.0,East,6.9,-,N/A,,Clear,90,2013-09-30 20:35:00
4:54 PM,64.8,50.7,60,29.90,10.0,SE,3.5,-,N/A,,Clear,140,2013-09-30 20:54:00
5:15 PM,64.4,50.9,62,29.90,10.0,Calm,Calm,-,N/A,,Clear,0,2013-09-30 21:15:00
5:35 PM,64.2,52.3,65,29.90,10.0,ENE,6.9,-,N/A,,Clear,70,2013-09-30 21:35:00
5:55 PM,63.0,52.3,68,29.90,10.0,ENE,3.5,-,N/A,,Clear,70,2013-09-30 21:55:00
6:15 PM,62.6,53.8,73,29.90,10.0,East,4.6,-,N/A,,Clear,80,2013-09-30 22:15:00
6:34 PM,63.0,53.1,70,29.89,10.0,ESE,4.6,-,N/A,,Clear,110,2013-09-30 22:34:00
6:55 PM,62.2,51.8,69,29.90,10.0,ESE,4.6,-,N/A,,Clear,120,2013-09-30 22:55:00
7:15 PM,61.2,52.2,72,29.90,10.0,SE,6.9,-,N/A,,Clear,130,2013-09-30 23:15:00
7:35 PM,61.0,52.2,73,29.90,10.0,SE,4.6,-,N/A,,Clear,140,2013-09-30 23:35:00
7:55 PM,59.9,51.4,74,29.91,10.0,SSE,6.9,-,N/A,,Clear,150,2013-09-30 23:55:00
8:14 PM,59.4,51.8,76,29.91,10.0,SSE,4.6,-,N/A,,Clear,160,2013-10-01 00:14:00
8:35 PM,58.1,52.0,80,29.90,10.0,South,6.9,-,N/A,,Clear,170,2013-10-01 00:35:00
8:55 PM,57.7,52.0,81,29.90,10.0,SSE,5.8,-,N/A,,Clear,160,2013-10-01 00:55:00
9:14 PM,57.2,52.0,83,29.91,10.0,South,5.8,-,N/A,,Clear,170,2013-10-01 01:14:00
9:35 PM,57.2,51.8,82,29.91,10.0,South,5.8,-,N/A,,Clear,170,2013-10-01 01:35:00
9:55 PM,56.8,52.0,84,29.91,10.0,South,5.8,-,N/A,,Clear,170,2013-10-01 01:55:00
10:15 PM,56.7,51.4,83,29.91,10.0,South,8.1,-,N/A,,Clear,190,2013-10-01 02:15:00
10:35 PM,57.0,50.9,80,29.90,10.0,South,8.1,-,N/A,,Clear,190,2013-10-01 02:35:00
10:54 PM,56.8,50.4,79,29.90,10.0,South,9.2,-,N/A,,Clear,190,2013-10-01 02:54:00
11:15 PM,56.8,50.4,79,29.90,10.0,South,8.1,-,N/A,,Clear,190,2013-10-01 03:15:00
11:35 PM,56.3,50.2,80,29.90,10.0,South,9.2,-,N/A,,Clear,180,2013-10-01 03:35:00
11:54 PM,56.5,50.0,79,29.90,10.0,South,8.1,-,N/A,,Clear,180,2013-10-01 03:54:00